createdAt,value
2017-08-19T00:00:56.691Z,77.40
2017-08-19T00:03:24.191Z,77.20
2017-08-19T00:05:51.670Z,77.50
2017-08-19T00:08:20.124Z,77.30
2017-08-19T00:10:48.391Z,77.60
2017-08-19T00:13:15.897Z,77.50
2017-08-19T00:15:43.398Z,77.30
2017-08-19T00:18:11.021Z,77.40
2017-08-19T00:20:38.481Z,77.40
2017-08-19T00:23:06.211Z,76.60
2017-08-19T00:25:33.736Z,76.00
2017-08-19T00:28:01.478Z,76.10
2017-08-19T00:30:28.951Z,75.70
2017-08-19T00:32:56.452Z,75.60
2017-08-19T00:35:24.078Z,75.30
2017-08-19T00:37:51.566Z,75.40
2017-08-19T00:40:19.064Z,75.60
2017-08-19T00:42:48.131Z,76.10
2017-08-19T00:45:15.622Z,75.20
2017-08-19T00:47:43.110Z,75.30
2017-08-19T00:50:10.587Z,75.20
2017-08-19T00:52:38.056Z,75.30
2017-08-19T00:55:05.577Z,75.00
2017-08-19T00:57:33.049Z,75.10
2017-08-19T01:00:00.507Z,75.20
2017-08-19T01:02:27.982Z,74.40
2017-08-19T01:04:55.681Z,74.40
2017-08-19T01:07:23.119Z,75.00
2017-08-19T01:09:50.993Z,75.00
2017-08-19T01:12:18.498Z,75.10
2017-08-19T01:14:46.001Z,75.40
2017-08-19T01:17:13.538Z,75.70
2017-08-19T01:19:41.021Z,75.70
2017-08-19T01:22:08.635Z,75.70
2017-08-19T01:24:36.832Z,75.60
2017-08-19T01:27:04.473Z,75.40
2017-08-19T01:29:31.939Z,75.80
2017-08-19T01:32:01.151Z,74.70
2017-08-19T01:34:28.680Z,75.60
2017-08-19T01:36:56.152Z,75.70
2017-08-19T01:39:23.658Z,75.80
2017-08-19T01:41:51.147Z,75.30
2017-08-19T01:44:18.631Z,75.20
2017-08-19T01:46:46.289Z,75.20
2017-08-19T01:49:13.763Z,74.90
2017-08-19T01:51:41.239Z,75.00
2017-08-19T01:54:08.929Z,75.00
2017-08-19T01:56:36.736Z,75.20
2017-08-19T01:59:04.282Z,75.30
2017-08-19T02:01:32.291Z,75.50
2017-08-19T02:03:59.783Z,75.70
2017-08-19T02:06:27.402Z,75.70
2017-08-19T02:08:55.624Z,75.50
2017-08-19T02:11:23.105Z,75.70
2017-08-19T02:13:50.588Z,76.00
2017-08-19T02:16:18.238Z,76.20
2017-08-19T02:18:45.695Z,75.90
2017-08-19T02:21:13.183Z,75.90
2017-08-19T02:23:40.705Z,75.80
2017-08-19T02:26:08.202Z,74.90
2017-08-19T02:28:35.678Z,75.10
2017-08-19T02:31:03.189Z,75.30
2017-08-19T02:33:30.650Z,75.10
2017-08-19T02:35:58.336Z,74.90
2017-08-19T02:38:25.880Z,74.80
2017-08-19T02:40:53.427Z,74.90
2017-08-19T02:43:20.858Z,74.00
2017-08-19T02:45:48.418Z,74.60
2017-08-19T02:48:15.944Z,74.90
2017-08-19T02:50:43.580Z,74.90
2017-08-19T02:53:12.605Z,75.00
2017-08-19T02:55:40.284Z,74.70
2017-08-19T02:58:07.851Z,75.00
2017-08-19T03:00:35.347Z,74.90
2017-08-19T03:03:02.848Z,75.00
2017-08-19T03:05:30.324Z,74.80
2017-08-19T03:07:57.849Z,74.70
2017-08-19T03:10:25.360Z,74.80
2017-08-19T03:12:52.845Z,75.50
2017-08-19T03:15:20.494Z,75.70
2017-08-19T03:17:47.931Z,75.50
2017-08-19T03:20:15.429Z,75.70
2017-08-19T03:22:43.099Z,75.30
2017-08-19T03:25:11.325Z,75.50
2017-08-19T03:27:38.785Z,75.50
2017-08-19T03:30:06.290Z,75.70
2017-08-19T03:32:33.875Z,75.80
2017-08-19T03:35:01.341Z,75.70
2017-08-19T03:37:28.956Z,75.90
2017-08-19T03:39:56.423Z,76.10
2017-08-19T03:42:24.024Z,76.00
2017-08-19T03:44:51.818Z,76.00
2017-08-19T03:47:19.280Z,76.00
2017-08-19T03:49:46.750Z,76.00
2017-08-19T03:52:14.859Z,76.10
2017-08-19T03:54:42.323Z,76.20
2017-08-19T03:57:09.773Z,76.20
2017-08-19T03:59:37.276Z,76.20
2017-08-19T04:02:04.763Z,76.30
2017-08-19T04:04:32.237Z,76.30
2017-08-19T04:06:59.941Z,76.40
2017-08-19T04:09:27.432Z,76.60
2017-08-19T04:11:54.907Z,76.60
2017-08-19T04:14:22.363Z,76.50
2017-08-19T04:16:49.844Z,76.50
2017-08-19T04:19:17.362Z,76.30
2017-08-19T04:21:44.882Z,76.30
2017-08-19T04:24:12.356Z,75.90
2017-08-19T04:26:39.855Z,75.90
2017-08-19T04:29:07.370Z,76.00
2017-08-19T04:31:34.775Z,76.20
2017-08-19T04:34:02.333Z,76.30
2017-08-19T04:36:29.944Z,76.50
2017-08-19T04:38:57.398Z,76.60
2017-08-19T04:41:24.894Z,76.60
2017-08-19T04:43:52.649Z,76.90
2017-08-19T04:46:20.112Z,77.10
2017-08-19T04:48:47.593Z,77.00
2017-08-19T04:51:15.780Z,77.00
2017-08-19T04:53:43.253Z,77.00
2017-08-19T04:56:11.077Z,77.00
2017-08-19T04:58:38.564Z,77.00
2017-08-19T05:01:05.998Z,77.20
2017-08-19T05:03:33.853Z,77.30
2017-08-19T05:06:01.516Z,76.50
2017-08-19T05:08:28.927Z,76.30
2017-08-19T05:10:56.400Z,76.10
2017-08-19T05:13:23.910Z,75.20
2017-08-19T05:15:51.376Z,74.40
2017-08-19T05:18:18.847Z,73.80
2017-08-19T05:20:46.596Z,73.90
2017-08-19T05:23:14.071Z,74.00
2017-08-19T05:25:41.552Z,73.70
2017-08-19T05:28:09.267Z,73.50
2017-08-19T05:30:36.877Z,73.50
2017-08-19T05:33:04.341Z,73.20
2017-08-19T05:35:31.839Z,73.40
2017-08-19T05:37:59.295Z,73.10
2017-08-19T05:40:26.990Z,73.10
2017-08-19T05:42:54.485Z,72.90
2017-08-19T05:45:21.941Z,72.90
2017-08-19T05:47:49.615Z,72.80
2017-08-19T05:50:17.085Z,72.80
2017-08-19T05:52:44.634Z,72.50
2017-08-19T05:55:12.193Z,72.70
2017-08-19T05:57:39.682Z,72.60
2017-08-19T06:00:07.345Z,72.60
2017-08-19T06:02:34.834Z,72.40
2017-08-19T06:05:02.312Z,72.50
2017-08-19T06:07:29.952Z,72.50
2017-08-19T06:09:57.387Z,72.30
2017-08-19T06:12:24.894Z,72.50
2017-08-19T06:14:52.362Z,72.60
2017-08-19T06:17:19.851Z,72.50
2017-08-19T06:19:47.309Z,72.80
2017-08-19T06:22:14.814Z,72.60
2017-08-19T06:24:42.254Z,72.70
2017-08-19T06:27:09.733Z,72.50
2017-08-19T06:29:37.248Z,72.30
2017-08-19T06:32:04.705Z,72.50
2017-08-19T06:34:32.175Z,72.10
2017-08-19T06:36:59.715Z,72.20
2017-08-19T06:39:27.208Z,71.50
2017-08-19T06:41:54.887Z,70.90
2017-08-19T06:44:22.452Z,71.10
2017-08-19T06:46:49.890Z,71.00
2017-08-19T06:49:17.451Z,70.80
2017-08-19T06:51:44.976Z,70.10
2017-08-19T06:54:12.434Z,70.20
2017-08-19T06:56:40.075Z,70.00
2017-08-19T06:59:07.656Z,70.00
2017-08-19T07:01:35.118Z,68.90
2017-08-19T07:04:02.852Z,69.30
2017-08-19T07:06:30.311Z,69.80
2017-08-19T07:08:57.789Z,67.90
2017-08-19T07:11:25.262Z,66.90
2017-08-19T07:13:52.771Z,66.90
2017-08-19T07:16:20.516Z,67.20
2017-08-19T07:18:48.000Z,67.10
2017-08-19T07:21:15.711Z,67.10
2017-08-19T07:23:43.173Z,66.90
2017-08-19T07:26:10.644Z,67.10
2017-08-19T07:28:38.254Z,67.50
2017-08-19T07:31:05.719Z,67.50
2017-08-19T07:33:33.214Z,66.40
2017-08-19T07:36:00.682Z,66.30
2017-08-19T07:38:28.194Z,66.40
2017-08-19T07:40:56.039Z,66.30
2017-08-19T07:43:23.534Z,65.60
2017-08-19T07:45:51.012Z,66.30
2017-08-19T07:48:18.514Z,66.80
2017-08-19T07:50:45.989Z,67.00
2017-08-19T07:53:13.702Z,67.50
2017-08-19T07:55:41.385Z,67.50
2017-08-19T07:58:08.853Z,66.20
2017-08-19T08:00:36.315Z,65.30
2017-08-19T08:03:03.938Z,65.40
2017-08-19T08:05:31.396Z,65.40
2017-08-19T08:07:58.865Z,65.60
2017-08-19T08:10:26.445Z,65.90
2017-08-19T08:12:53.900Z,66.50
2017-08-19T08:15:21.408Z,66.10
2017-08-19T08:17:49.321Z,65.70
2017-08-19T08:20:16.744Z,66.20
2017-08-19T08:22:44.208Z,66.40
2017-08-19T08:25:11.690Z,64.90
2017-08-19T08:27:39.168Z,65.40
2017-08-19T08:30:06.636Z,65.40
2017-08-19T08:32:34.124Z,64.90
2017-08-19T08:35:01.800Z,64.90
2017-08-19T08:37:29.256Z,64.90
2017-08-19T08:39:56.682Z,64.00
2017-08-19T08:42:24.393Z,64.10
2017-08-19T08:44:51.845Z,64.70
2017-08-19T08:47:19.259Z,64.60
2017-08-19T08:49:46.791Z,65.00
2017-08-19T08:52:14.245Z,64.50
2017-08-19T08:54:41.727Z,64.10
2017-08-19T08:57:09.273Z,62.50
2017-08-19T08:59:36.727Z,63.00
2017-08-19T09:02:04.219Z,62.50
2017-08-19T09:04:31.743Z,62.20
2017-08-19T09:06:59.316Z,62.50
2017-08-19T09:09:26.787Z,61.20
2017-08-19T09:11:54.255Z,62.30
2017-08-19T09:14:22.099Z,61.40
2017-08-19T09:16:49.809Z,61.50
2017-08-19T09:19:17.288Z,60.10
2017-08-19T09:21:44.802Z,60.20
2017-08-19T09:24:12.554Z,60.80
2017-08-19T09:26:40.208Z,60.50
2017-08-19T09:29:07.705Z,60.10
2017-08-19T09:31:35.255Z,59.90
2017-08-19T09:34:02.772Z,57.20
2017-08-19T09:36:30.254Z,56.80
2017-08-19T09:38:57.872Z,55.80
2017-08-19T09:41:25.330Z,55.10
2017-08-19T09:43:52.809Z,53.60
2017-08-19T09:46:20.359Z,51.70
2017-08-19T09:48:47.915Z,51.50
2017-08-19T09:51:15.395Z,51.50
2017-08-19T09:53:42.905Z,50.90
2017-08-19T09:56:10.412Z,51.10
2017-08-19T09:58:38.080Z,50.20
2017-08-19T10:01:05.594Z,48.20
2017-08-19T10:03:33.032Z,49.30
2017-08-19T10:06:00.705Z,49.10
2017-08-19T10:08:40.175Z,49.50
2017-08-19T10:11:19.691Z,47.10
2017-08-19T10:13:47.125Z,47.00
2017-08-19T10:16:14.555Z,47.40
2017-08-19T10:18:42.176Z,47.90
2017-08-19T10:21:09.620Z,48.10
2017-08-19T10:23:37.073Z,48.80
2017-08-19T10:26:04.790Z,48.70
2017-08-19T10:28:32.257Z,50.20
2017-08-19T10:30:59.688Z,49.10
2017-08-19T10:33:27.168Z,50.00
2017-08-19T10:35:54.609Z,50.20
2017-08-19T10:38:22.038Z,50.90
2017-08-19T10:40:49.522Z,50.70
2017-08-19T10:43:16.959Z,52.20
2017-08-19T10:45:44.700Z,50.20
2017-08-19T10:48:12.150Z,51.70
2017-08-19T10:50:39.601Z,51.10
2017-08-19T10:53:07.074Z,50.40
2017-08-19T10:55:34.504Z,50.20
2017-08-19T10:58:01.965Z,51.80
2017-08-19T11:00:29.424Z,50.70
2017-08-19T11:02:56.875Z,51.30
2017-08-19T11:05:24.369Z,51.80
2017-08-19T11:07:51.855Z,51.70
2017-08-19T11:10:19.274Z,51.60
2017-08-19T11:12:46.716Z,51.50
2017-08-19T11:15:14.373Z,52.60
2017-08-19T11:17:42.669Z,50.70
2017-08-19T11:20:10.122Z,51.50
2017-08-19T11:22:37.632Z,53.30
2017-08-19T11:25:05.078Z,52.00
2017-08-19T11:27:32.511Z,51.70
2017-08-19T11:30:00.070Z,51.80
2017-08-19T11:32:27.513Z,52.50
2017-08-19T11:34:54.948Z,53.10
2017-08-19T11:37:23.216Z,52.70
2017-08-19T11:39:50.654Z,52.40
2017-08-19T11:42:18.132Z,52.70
2017-08-19T11:44:45.578Z,53.20
2017-08-19T11:47:13.031Z,53.80
2017-08-19T11:49:40.665Z,53.20
2017-08-19T11:52:08.100Z,53.30
2017-08-19T11:54:35.557Z,54.50
2017-08-19T11:57:03.048Z,54.90
2017-08-19T11:59:30.670Z,54.40
2017-08-19T12:01:58.115Z,54.60
2017-08-19T12:04:25.771Z,55.30
2017-08-19T12:06:53.206Z,54.00
2017-08-19T12:09:20.640Z,53.30
2017-08-19T12:11:48.097Z,53.00
2017-08-19T12:14:15.535Z,52.50
2017-08-19T12:16:43.006Z,52.70
2017-08-19T12:19:10.447Z,52.80
2017-08-19T12:21:38.072Z,52.80
2017-08-19T12:24:05.499Z,52.70
2017-08-19T12:26:32.936Z,53.60
2017-08-19T12:29:00.379Z,53.20
2017-08-19T12:31:28.079Z,52.80
2017-08-19T12:33:55.583Z,52.30
2017-08-19T12:36:23.014Z,51.90
2017-08-19T12:38:50.460Z,51.70
2017-08-19T12:41:17.901Z,52.50
2017-08-19T12:43:45.678Z,51.40
2017-08-19T12:46:13.925Z,50.90
2017-08-19T12:48:41.371Z,51.80
2017-08-19T12:51:09.041Z,50.80
2017-08-19T12:53:36.489Z,51.80
2017-08-19T12:56:03.911Z,51.70
2017-08-19T12:58:31.382Z,52.20
2017-08-19T13:00:58.819Z,53.00
2017-08-19T13:03:26.254Z,51.70
2017-08-19T13:05:53.946Z,52.40
2017-08-19T13:08:21.407Z,52.20
2017-08-19T13:10:48.833Z,52.50
2017-08-19T13:13:16.510Z,53.20
2017-08-19T13:15:43.953Z,53.30
2017-08-19T13:18:11.387Z,53.00
2017-08-19T13:20:38.875Z,52.80
2017-08-19T13:23:06.310Z,52.90
2017-08-19T13:25:33.770Z,52.50
2017-08-19T13:28:01.367Z,53.20
2017-08-19T13:30:29.119Z,53.20
2017-08-19T13:32:56.631Z,53.30
2017-08-19T13:35:25.091Z,54.00
2017-08-19T13:37:52.552Z,52.90
2017-08-19T13:40:20.087Z,52.00
2017-08-19T13:42:47.910Z,52.10
2017-08-19T13:45:15.347Z,52.00
2017-08-19T13:47:42.825Z,52.20
2017-08-19T13:50:10.252Z,51.60
2017-08-19T13:52:37.792Z,51.90
2017-08-19T13:55:05.375Z,50.90
2017-08-19T13:57:32.968Z,51.30
2017-08-19T14:00:00.446Z,50.90
2017-08-19T14:02:27.913Z,51.60
2017-08-19T14:04:55.752Z,50.60
2017-08-19T14:07:23.803Z,50.10
2017-08-19T14:09:51.376Z,50.10
2017-08-19T14:12:18.960Z,49.90
2017-08-19T14:27:48.451Z,50.40
2017-08-19T14:30:15.936Z,49.60
2017-08-19T14:32:43.513Z,51.30
2017-08-19T14:35:11.321Z,49.50
2017-08-19T14:37:38.786Z,50.60
2017-08-19T14:40:06.288Z,49.50
2017-08-19T14:42:33.917Z,48.70
2017-08-19T14:45:01.373Z,49.70
2017-08-19T14:47:28.816Z,49.60
2017-08-19T14:49:56.935Z,49.10
2017-08-19T14:52:24.755Z,49.20
2017-08-19T14:54:52.215Z,49.10
2017-08-19T14:57:19.665Z,49.00
2017-08-19T14:59:47.851Z,48.90
2017-08-19T15:02:15.480Z,48.50
2017-08-19T15:04:42.934Z,49.40
2017-08-19T15:07:10.550Z,49.70
2017-08-19T15:09:37.992Z,49.40
2017-08-19T15:12:05.444Z,48.30
2017-08-19T15:14:33.143Z,48.40
2017-08-19T15:17:00.605Z,48.90
2017-08-19T15:19:28.727Z,47.90
2017-08-19T15:21:56.209Z,48.80
2017-08-19T15:24:23.685Z,49.40
2017-08-19T15:26:51.144Z,48.70
2017-08-19T15:29:18.631Z,49.50
2017-08-19T15:31:46.100Z,49.30
2017-08-19T15:34:13.555Z,49.50
2017-08-19T15:36:41.028Z,50.30
2017-08-19T15:39:08.468Z,49.80
2017-08-19T15:41:36.396Z,49.30
2017-08-19T15:44:03.865Z,50.00
2017-08-19T15:46:31.290Z,49.20
2017-08-19T15:48:58.933Z,50.00
2017-08-19T15:51:26.400Z,49.80
2017-08-19T15:53:53.855Z,50.30
2017-08-19T15:56:21.376Z,50.90
2017-08-19T15:58:48.845Z,50.70
2017-08-19T16:01:16.340Z,50.30
2017-08-19T16:03:43.833Z,51.00
2017-08-19T16:06:11.284Z,50.90
2017-08-19T16:08:38.743Z,51.10
2017-08-19T16:11:06.222Z,50.90
2017-08-19T16:13:34.603Z,50.20
2017-08-19T16:16:02.114Z,50.70
2017-08-19T16:18:29.567Z,50.80
2017-08-19T16:20:57.017Z,51.40
2017-08-19T16:23:24.483Z,51.70
2017-08-19T16:25:51.958Z,52.10
2017-08-19T16:28:19.575Z,52.50
2017-08-19T16:30:47.412Z,52.80
2017-08-19T16:33:15.130Z,52.50
2017-08-19T16:35:42.630Z,52.30
2017-08-19T16:38:10.039Z,52.30
2017-08-19T16:40:37.624Z,53.10
2017-08-19T16:43:05.660Z,53.40
2017-08-19T16:45:33.398Z,53.40
2017-08-19T16:48:01.182Z,53.60
2017-08-19T16:50:29.342Z,53.80
2017-08-19T16:52:57.065Z,54.20
2017-08-19T16:55:24.530Z,54.30
2017-08-19T16:57:52.040Z,54.40
2017-08-19T17:00:19.467Z,54.40
2017-08-19T17:02:46.944Z,54.30
2017-08-19T17:05:14.514Z,54.00
2017-08-19T17:07:41.971Z,54.20
2017-08-19T17:10:10.055Z,54.40
2017-08-19T17:12:37.492Z,54.10
2017-08-19T17:15:04.946Z,54.50
2017-08-19T17:17:32.701Z,55.10
2017-08-19T17:20:00.457Z,54.20
2017-08-19T17:22:28.249Z,53.80
2017-08-19T17:24:55.715Z,53.20
2017-08-19T17:27:23.294Z,53.40
2017-08-19T17:29:50.773Z,53.60
2017-08-19T17:32:18.238Z,54.00
2017-08-19T17:34:46.038Z,54.00
2017-08-19T17:37:13.598Z,53.40
2017-08-19T17:39:41.058Z,53.90
2017-08-19T17:42:08.722Z,54.00
2017-08-19T17:44:36.170Z,54.40
2017-08-19T17:47:03.627Z,54.70
2017-08-19T17:49:31.766Z,54.40
2017-08-19T17:51:59.204Z,55.00
2017-08-19T17:54:26.652Z,55.10
2017-08-19T17:56:54.332Z,55.20
2017-08-19T17:59:21.818Z,55.30
2017-08-19T18:01:49.293Z,55.80
2017-08-19T18:04:16.765Z,56.00
2017-08-19T18:06:44.246Z,56.10
2017-08-19T18:09:11.739Z,56.30
2017-08-19T18:11:39.245Z,56.40
2017-08-19T18:14:06.660Z,56.70
2017-08-19T18:16:34.147Z,57.60
2017-08-19T18:19:01.592Z,57.30
2017-08-19T18:21:29.254Z,56.00
2017-08-19T18:23:56.687Z,57.30
2017-08-19T18:26:24.552Z,58.90
2017-08-19T18:28:52.251Z,60.10
2017-08-19T18:31:19.727Z,62.40
2017-08-19T18:33:47.157Z,63.30
2017-08-19T18:36:14.861Z,64.20
2017-08-19T18:38:42.339Z,65.20
2017-08-19T18:41:09.835Z,65.20
2017-08-19T18:43:37.395Z,66.10
2017-08-19T18:46:04.884Z,66.20
2017-08-19T18:48:32.342Z,66.80
2017-08-19T18:51:00.294Z,66.90
2017-08-19T18:53:27.751Z,67.60
2017-08-19T18:55:55.214Z,67.40
2017-08-19T18:58:22.702Z,67.60
2017-08-19T19:00:50.255Z,67.80
2017-08-19T19:03:17.736Z,67.80
2017-08-19T19:05:45.219Z,67.60
2017-08-19T19:08:12.722Z,67.70
2017-08-19T19:10:40.273Z,67.90
2017-08-19T19:13:07.757Z,68.00
2017-08-19T19:15:36.662Z,68.00
2017-08-19T19:18:04.140Z,67.90
2017-08-19T19:20:31.577Z,67.90
2017-08-19T19:23:00.501Z,67.70
2017-08-19T19:25:27.949Z,67.80
2017-08-19T19:27:55.431Z,67.60
2017-08-19T19:30:22.915Z,67.40
2017-08-19T19:32:50.355Z,67.70
2017-08-19T19:35:17.810Z,67.80
2017-08-19T19:37:45.280Z,67.90
2017-08-19T19:40:12.735Z,67.90
2017-08-19T19:42:40.241Z,68.00
2017-08-19T19:45:08.048Z,67.90
2017-08-19T19:47:36.255Z,68.20
2017-08-19T19:50:03.716Z,68.20
2017-08-19T19:52:31.495Z,68.50
2017-08-19T19:54:59.059Z,68.40
2017-08-19T19:57:26.539Z,68.60
2017-08-19T19:59:54.090Z,68.80
2017-08-19T20:02:21.544Z,68.90
2017-08-19T20:04:49.167Z,69.00
2017-08-19T20:07:16.650Z,68.80
2017-08-19T20:09:44.118Z,68.70
2017-08-19T20:12:11.624Z,68.90
2017-08-19T20:14:39.096Z,69.10
2017-08-19T20:17:06.556Z,69.30
2017-08-19T20:19:34.058Z,69.40
2017-08-19T20:22:01.488Z,69.50
2017-08-19T20:24:28.938Z,69.50
2017-08-19T20:26:56.416Z,69.40
2017-08-19T20:29:23.888Z,69.40
2017-08-19T20:31:51.359Z,69.50
2017-08-19T20:34:18.864Z,69.60
2017-08-19T20:36:46.325Z,69.90
2017-08-19T20:39:13.881Z,70.00
2017-08-19T20:41:41.348Z,69.90
2017-08-19T20:44:08.819Z,69.90
2017-08-19T20:46:36.774Z,70.20
2017-08-19T20:49:04.446Z,70.30
2017-08-19T20:54:22.432Z,70.60
2017-08-19T20:59:40.778Z,70.30
2017-08-19T21:02:08.221Z,70.30
2017-08-19T21:04:35.681Z,70.30
2017-08-19T21:07:03.163Z,70.20
2017-08-19T21:09:30.679Z,70.30
2017-08-19T21:11:58.099Z,70.30
2017-08-19T21:14:25.570Z,70.40
2017-08-19T21:16:52.992Z,70.50
2017-08-19T21:19:21.491Z,70.70
2017-08-19T21:21:48.929Z,70.80
2017-08-19T21:24:16.488Z,70.90
2017-08-19T21:26:43.942Z,71.10
2017-08-19T21:29:11.373Z,71.30
2017-08-19T21:31:38.804Z,71.10
2017-08-19T21:34:06.256Z,71.00
2017-08-19T21:36:33.691Z,71.20
2017-08-19T21:39:01.117Z,71.20
2017-08-19T21:41:28.631Z,71.20
2017-08-19T21:43:56.130Z,71.10
2017-08-19T21:46:23.560Z,70.90
2017-08-19T21:48:51.011Z,70.80
2017-08-19T21:51:18.480Z,70.70
2017-08-19T21:53:45.928Z,70.60
2017-08-19T21:56:13.367Z,70.40
2017-08-19T21:58:40.860Z,70.40
2017-08-19T22:01:08.580Z,70.40
2017-08-19T22:03:36.043Z,70.30
2017-08-19T22:06:03.497Z,70.00
2017-08-19T22:08:30.961Z,70.00
2017-08-19T22:10:58.407Z,70.10
2017-08-19T22:13:26.872Z,70.30
2017-08-19T22:15:54.339Z,70.50
2017-08-19T22:18:21.778Z,70.50
2017-08-19T22:20:49.232Z,70.50
2017-08-19T22:23:16.723Z,70.70
2017-08-19T22:25:44.155Z,70.50
2017-08-19T22:28:11.629Z,70.50
2017-08-19T22:30:39.097Z,70.30
2017-08-19T22:33:06.665Z,70.30
2017-08-19T22:35:34.140Z,70.20
2017-08-19T22:38:01.689Z,70.00
2017-08-19T22:40:29.116Z,70.20
2017-08-19T22:42:56.581Z,70.10
2017-08-19T22:45:24.066Z,70.30
2017-08-19T22:47:52.307Z,70.40
2017-08-19T22:50:19.851Z,70.50
2017-08-19T22:52:47.718Z,70.60
2017-08-19T22:55:15.726Z,70.60
2017-08-19T22:57:43.219Z,70.50
2017-08-19T23:00:10.682Z,70.50
2017-08-19T23:02:38.119Z,70.70
2017-08-19T23:05:05.580Z,70.80
2017-08-19T23:07:32.996Z,71.00
2017-08-19T23:10:00.432Z,71.00
2017-08-19T23:12:27.994Z,70.90
2017-08-19T23:14:55.473Z,71.20
2017-08-19T23:17:22.905Z,71.40
2017-08-19T23:19:50.397Z,71.60
2017-08-19T23:22:17.928Z,71.60
2017-08-19T23:24:45.379Z,71.60
2017-08-19T23:27:13.678Z,71.60
2017-08-19T23:29:41.113Z,71.60
2017-08-19T23:32:08.556Z,71.40
2017-08-19T23:34:36.068Z,71.40
2017-08-19T23:37:03.515Z,71.40
2017-08-19T23:39:31.286Z,71.40
2017-08-19T23:41:58.753Z,71.60
2017-08-19T23:44:26.203Z,71.50
2017-08-19T23:46:53.684Z,71.60
2017-08-19T23:49:21.231Z,71.70
2017-08-19T23:51:48.664Z,71.80
2017-08-19T23:54:16.112Z,72.00
2017-08-19T23:56:43.643Z,72.00
2017-08-19T23:59:11.512Z,72.00
